Acme, Canada
Current Conditions -  °F | °C
As of 4:00 AM on Friday 19 Dec 2014 (Local Time) from CYYC Reporting Station
Broken Clouds Broken Clouds  
Wind Chill: 21°   Ceiling: 22000
Heat Index: 21°   Visibility: 15mi
Dew Point: 16°   Wind: 0mph
Humidity: 80%   Direction: NA
Pressure: 29.73"   Gusts: NA
Location:  51.5°N, 113.5°W
Report Text: CYYC 191100Z 00000KT 15SM BKN220 M06/M09 A2973 RMK CI5 SLP115
Loading
Personal Weather Stations






























Interactive Weather Map New forecast layout! Learn more

10-Day Weather Forecast

Advertisements
Track Severe Weather on mobile